Terminal Aerodrome Forecast
Issued by NWS

Home | Current Version | Previous Version | Text Only | Print | Product List | Glossary On
Versions: 1 2 3 4 5 6 7 8 9 10 11 12
000
FTUS45 KRIW 311100
TAFRKS
TAF
KRKS 311122Z 3112/0112 15008KT P6SM SCT130 BKN200
     FM312000 20012G20KT P6SM SCT130 BKN200
     FM010100 17009KT P6SM SCT130 BKN200
     FM010700 17010KT P6SM BKN140=

USA.gov is the U.S. government's official web portal to all federal, state and local government web resources and services.